Time;durP1;ratioP1;P1;durP2;ratioP2;P2;SDS_P1;SDS_P2;PMS_P1;PMS_P2;Temp;Humidity;BMP_temperature;BMP_pressure;BME280_temperature;BME280_humidity;BME280_pressure;Samples;Min_cycle;Max_cycle;Signal;HPM_P1;HPM_P2
2022/09/14 00:01:34;;;;;;;4.43;4.00;;;;;;;11.63;70.90;98908.16;5111335;28;20063;-50
2022/09/14 00:04:06;;;;;;;4.57;4.18;;;;;;;11.56;71.18;98900.84;5111983;28;20036;-49
2022/09/14 00:06:33;;;;;;;4.68;4.28;;;;;;;11.50;71.18;98902.31;5111719;28;20051;-53
2022/09/14 00:08:59;;;;;;;4.60;4.20;;;;;;;11.49;71.52;98905.97;5111715;28;20051;-54
2022/09/14 00:11:27;;;;;;;4.47;4.10;;;;;;;11.54;70.90;98898.31;5112162;28;20089;-53
2022/09/14 00:13:55;;;;;;;4.60;4.20;;;;;;;11.47;71.57;98902.63;5111866;28;20023;-56
2022/09/14 00:16:27;;;;;;;5.03;3.83;;;;;;;11.47;71.53;98890.06;5111128;28;20478;-61
2022/09/14 00:19:05;;;;;;;4.30;3.58;;;;;;;11.51;71.50;98892.44;5110985;27;20519;-56
2022/09/14 00:21:32;;;;;;;4.00;3.70;;;;;;;11.61;71.22;98894.06;5112226;28;20040;-57
2022/09/14 00:23:58;;;;;;;4.40;4.10;;;;;;;11.54;71.76;98892.97;5110082;28;20127;-53
2022/09/14 00:26:24;;;;;;;4.68;3.95;;;;;;;11.50;72.11;98883.53;5111175;28;20170;-50
2022/09/14 00:28:55;;;;;;;4.43;4.03;;;;;;;11.60;71.98;98892.38;5111720;28;20039;-51
2022/09/14 00:31:22;;;;;;;4.80;4.20;;;;;;;11.62;71.67;98879.66;5111709;28;20049;-58
2022/09/14 00:33:49;;;;;;;5.43;4.28;;;;;;;11.67;71.47;98891.75;5111927;28;20067;-53
2022/09/14 00:36:21;;;;;;;4.47;4.07;;;;;;;11.59;71.71;98885.31;5111249;28;20027;-55
2022/09/14 00:38:47;;;;;;;6.57;4.20;;;;;;;11.53;72.14;98887.78;5110762;28;20471;-53
2022/09/14 00:41:16;;;;;;;4.72;4.32;;;;;;;11.47;72.68;98887.38;5111924;28;20112;-52
2022/09/14 00:43:57;;;;;;;6.43;4.57;;;;;;;11.65;71.77;98883.84;5109692;28;20031;-53
2022/09/14 00:46:28;;;;;;;4.68;4.05;;;;;;;11.65;71.70;98886.53;5110966;28;20032;-54
2022/09/14 00:48:56;;;;;;;4.53;3.70;;;;;;;11.71;71.54;98880.56;5111764;28;20379;-55
2022/09/14 00:51:22;;;;;;;6.25;5.03;;;;;;;11.58;72.12;98867.56;5111486;28;20080;-56
2022/09/14 00:53:47;;;;;;;7.63;4.60;;;;;;;11.54;72.58;98866.16;5111263;28;20116;-52
2022/09/14 00:56:13;;;;;;;5.53;4.18;;;;;;;11.72;71.88;98866.16;5111268;28;20464;-51
2022/09/14 00:58:40;;;;;;;4.47;4.07;;;;;;;11.66;72.06;98863.25;5110794;27;20028;-54
2022/09/14 01:01:08;;;;;;;4.93;3.72;;;;;;;11.74;71.43;98860.63;5111640;28;20055;-51
2022/09/14 01:03:34;;;;;;;5.15;3.20;;;;;;;11.65;71.58;98856.22;5110264;28;20396;-49
2022/09/14 01:06:34;;;;;;;4.32;3.60;;;;;;;11.82;70.96;98854.50;5110532;28;20428;-50
2022/09/14 01:09:29;;;;;;;5.55;3.58;;;;;;;11.69;71.62;98860.25;5110747;28;20395;-50
2022/09/14 01:12:32;;;;;;;4.43;3.75;;;;;;;11.80;71.11;98860.00;5111199;28;20141;-50
2022/09/14 01:15:08;;;;;;;4.43;3.30;;;;;;;11.65;71.66;98854.34;5110205;28;20096;-50
2022/09/14 01:17:56;;;;;;;4.43;3.63;;;;;;;11.75;71.33;98855.13;5111107;28;20036;-52
2022/09/14 01:20:34;;;;;;;3.90;3.50;;;;;;;11.54;71.09;98817.91;5111179;28;20039;-53
2022/09/14 01:23:06;;;;;;;4.38;3.60;;;;;;;11.75;71.13;98856.94;5110737;28;20410;-51
2022/09/14 01:25:59;;;;;;;4.82;3.63;;;;;;;11.72;71.63;98860.78;5109916;28;20028;-53
2022/09/14 01:28:55;;;;;;;6.07;3.67;;;;;;;11.72;71.80;98846.53;5110531;28;20284;-52
2022/09/14 01:31:24;;;;;;;5.45;3.63;;;;;;;11.66;72.04;98844.47;5110423;28;20023;-51
2022/09/14 01:34:11;;;;;;;5.40;3.40;;;;;;;11.77;71.72;98847.75;5110348;28;20043;-53
2022/09/14 01:36:41;;;;;;;4.57;3.67;;;;;;;11.75;71.72;98843.53;5110426;28;20028;-54
2022/09/14 01:39:09;;;;;;;3.90;3.50;;;;;;;11.72;71.78;98844.72;5109760;28;20035;-56
2022/09/14 01:41:36;;;;;;;6.20;3.58;;;;;;;11.68;72.05;98839.81;5110458;28;20058;-52
2022/09/14 01:44:17;;;;;;;4.43;3.28;;;;;;;11.83;71.68;98840.09;5110627;28;20028;-53
2022/09/14 01:46:46;;;;;;;3.20;3.00;;;;;;;11.72;71.98;98827.75;5109893;28;20028;-53
2022/09/14 01:49:18;;;;;;;3.90;3.38;;;;;;;11.75;71.66;98830.13;5110285;28;20119;-54
2022/09/14 01:51:50;;;;;;;3.45;2.70;;;;;;;11.93;71.04;98835.44;5109851;28;20039;-54
2022/09/14 01:54:26;;;;;;;3.78;3.40;;;;;;;11.75;71.91;98841.72;5110761;28;20042;-49
2022/09/14 01:56:57;;;;;;;;;;;;;;;12.03;70.09;98827.34;5110770;28;20141;-50
2022/09/14 01:59:27;;;;;;;3.63;3.22;;;;;;;11.74;71.98;98817.72;5109949;28;20347;-56
2022/09/14 02:01:58;;;;;;;4.47;3.42;;;;;;;11.67;72.67;98814.00;5110885;28;20043;-54
2022/09/14 02:04:56;;;;;;;4.00;3.22;;;;;;;11.72;72.50;98809.84;5110019;28;20039;-55
2022/09/14 02:07:22;;;;;;;4.22;3.22;;;;;;;11.66;72.71;98810.44;5096423;28;20071;-51
2022/09/14 02:09:50;;;;;;;3.50;3.20;;;;;;;11.65;72.83;98816.00;5110796;28;20043;-55
2022/09/14 02:12:16;;;;;;;3.85;3.42;;;;;;;11.74;72.66;98804.31;5109476;28;20287;-52
2022/09/14 02:14:44;;;;;;;4.13;3.72;;;;;;;11.72;72.44;98803.63;5109023;28;20357;-51
2022/09/14 02:17:11;;;;;;;6.05;3.72;;;;;;;11.71;72.51;98804.63;5110171;28;20425;-55
2022/09/14 02:19:46;;;;;;;4.40;4.00;;;;;;;11.72;73.01;98809.00;5109727;28;20042;-54
2022/09/14 02:22:12;;;;;;;4.25;3.85;;;;;;;11.64;73.05;98799.03;5109841;28;20034;-53
2022/09/14 02:24:38;;;;;;;3.88;3.38;;;;;;;11.65;73.08;98805.25;5110153;28;20096;-55
2022/09/14 02:27:05;;;;;;;3.88;3.40;;;;;;;11.77;72.63;98812.91;5110118;28;20460;-55
2022/09/14 02:29:31;;;;;;;5.22;3.30;;;;;;;11.72;72.57;98804.50;5110492;28;20036;-53
2022/09/14 02:32:22;;;;;;;5.20;3.85;;;;;;;11.68;72.95;98807.63;5110076;28;20367;-54
2022/09/14 02:35:03;;;;;;;3.65;3.35;;;;;;;11.72;72.93;98803.63;5110495;28;20047;-54
2022/09/14 02:37:43;;;;;;;4.13;3.55;;;;;;;11.67;73.41;98795.22;5109840;28;20094;-55
2022/09/14 02:40:33;;;;;;;5.47;3.85;;;;;;;11.70;73.37;98800.28;5109994;28;20043;-51
2022/09/14 02:43:19;;;;;;;5.55;3.72;;;;;;;11.59;73.92;98794.16;5110612;28;20043;-52
2022/09/14 02:45:56;;;;;;;4.60;3.83;;;;;;;11.74;73.42;98788.22;5113375;28;20513;-55
2022/09/14 02:48:30;;;;;;;4.70;3.95;;;;;;;11.71;73.64;98791.22;5113502;28;20089;-55
2022/09/14 02:51:14;;;;;;;4.72;3.80;;;;;;;11.75;73.48;98793.44;5113311;28;20444;-52
2022/09/14 02:53:53;;;;;;;5.40;4.13;;;;;;;11.84;73.08;98790.81;5113948;28;20122;-54
2022/09/14 02:56:19;;;;;;;5.35;4.10;;;;;;;11.71;73.44;98785.88;5113524;28;20042;-54
2022/09/14 02:58:45;;;;;;;4.70;4.10;;;;;;;11.73;73.53;98787.41;5113158;27;20043;-53
2022/09/14 03:01:19;;;;;;;5.70;4.03;;;;;;;11.63;74.59;98776.78;5112967;28;20027;-52
2022/09/14 03:03:45;;;;;;;5.38;4.20;;;;;;;11.63;74.17;98778.59;5112583;28;20028;-53
2022/09/14 03:06:11;;;;;;;4.55;4.15;;;;;;;11.72;74.01;98779.50;5113915;28;20040;-56
2022/09/14 03:08:37;;;;;;;5.53;4.20;;;;;;;11.71;74.12;98780.50;5113322;28;20119;-56
2022/09/14 03:11:04;;;;;;;6.07;4.35;;;;;;;11.61;74.68;98770.72;5112529;27;20151;-57
2022/09/14 03:13:29;;;;;;;5.65;4.18;;;;;;;11.62;74.23;98759.00;5113969;28;20046;-59
2022/09/14 03:15:55;;;;;;;5.85;4.45;;;;;;;11.66;74.46;98767.56;5113775;28;20028;-56
2022/09/14 03:18:20;;;;;;;5.00;4.22;;;;;;;11.77;73.93;98761.94;5112760;28;20517;-54
2022/09/14 03:20:46;;;;;;;4.95;4.45;;;;;;;11.71;74.62;98756.38;5112312;28;20039;-51
2022/09/14 03:23:12;;;;;;;4.88;4.30;;;;;;;11.80;73.98;98763.44;5112720;28;20103;-51
2022/09/14 03:25:40;;;;;;;6.55;4.53;;;;;;;11.79;74.10;98767.13;5112944;28;20119;-50
2022/09/14 03:28:07;;;;;;;5.68;4.60;;;;;;;11.75;74.28;98763.94;5112175;28;20027;-52
2022/09/14 03:30:33;;;;;;;5.40;4.90;;;;;;;11.77;74.01;98763.78;5112904;28;20052;-56
2022/09/14 03:32:59;;;;;;;7.68;5.00;;;;;;;11.76;74.11;98759.41;5112702;28;20097;-52
2022/09/14 03:35:29;;;;;;;6.30;5.22;;;;;;;11.66;74.76;98756.00;5112178;28;20429;-55
2022/09/14 03:37:54;;;;;;;6.80;4.82;;;;;;;11.71;74.55;98748.31;5112563;28;20364;-51
2022/09/14 03:40:20;;;;;;;6.60;5.25;;;;;;;11.62;75.05;98745.59;5111662;28;20080;-54
2022/09/14 03:42:47;;;;;;;6.93;4.93;;;;;;;11.69;74.66;98758.38;5112744;28;20035;-56
2022/09/14 03:45:14;;;;;;;8.07;5.63;;;;;;;11.66;75.12;98756.84;5111921;28;20353;-57
2022/09/14 03:47:41;;;;;;;7.70;6.50;;;;;;;11.60;75.19;98752.09;5111258;28;20051;-56
2022/09/14 03:50:08;;;;;;;7.88;6.93;;;;;;;11.59;75.92;98755.78;5112655;28;20036;-56
2022/09/14 03:52:34;;;;;;;8.93;7.05;;;;;;;11.72;74.73;98756.22;5111768;28;20034;-55
2022/09/14 03:55:00;;;;;;;9.45;7.07;;;;;;;11.70;74.93;98754.69;5111755;28;20035;-53
2022/09/14 03:57:25;;;;;;;8.43;6.95;;;;;;;11.66;75.33;98754.16;5112429;27;20085;-55
2022/09/14 03:59:51;;;;;;;9.48;7.50;;;;;;;11.80;74.50;98742.00;5111462;28;20375;-56
2022/09/14 04:02:16;;;;;;;9.25;7.75;;;;;;;11.78;74.92;98750.22;5112065;28;20036;-56
2022/09/14 04:04:42;;;;;;;9.25;7.78;;;;;;;11.71;75.33;98748.31;5111868;28;20036;-52
2022/09/14 04:07:07;;;;;;;9.77;7.78;;;;;;;11.69;75.59;98748.47;5110270;28;20048;-55
2022/09/14 04:09:33;;;;;;;9.75;8.32;;;;;;;11.74;75.49;98740.81;5110460;28;20035;-59
2022/09/14 04:11:59;;;;;;;13.60;8.68;;;;;;;11.73;75.36;98740.97;5110802;28;20028;-56
2022/09/14 04:14:24;;;;;;;10.07;8.20;;;;;;;11.90;74.69;98742.75;5110569;28;20034;-55
2022/09/14 04:16:50;;;;;;;10.48;8.32;;;;;;;11.92;74.24;98743.44;5110455;27;20130;-55
2022/09/14 04:19:16;;;;;;;12.90;9.27;;;;;;;11.88;74.55;98743.91;5109988;28;20410;-58
2022/09/14 04:21:41;;;;;;;11.73;9.27;;;;;;;11.89;74.63;98730.34;5110843;28;20479;-56
2022/09/14 04:24:10;;;;;;;11.30;9.35;;;;;;;11.90;74.75;98756.16;5110335;28;20024;-53
2022/09/14 04:26:36;;;;;;;13.85;9.55;;;;;;;11.86;74.89;98738.72;5109295;28;20123;-52
2022/09/14 04:29:02;;;;;;;10.40;9.32;;;;;;;11.85;75.25;98739.72;5110852;28;20474;-55
2022/09/14 04:31:27;;;;;;;11.38;10.00;;;;;;;11.96;74.83;98741.28;5110398;28;20023;-50
2022/09/14 04:33:55;;;;;;;12.10;10.00;;;;;;;12.03;74.56;98736.97;5109552;28;20038;-52
2022/09/14 04:36:22;;;;;;;11.35;9.50;;;;;;;12.05;74.46;98739.47;5109293;28;20027;-55
2022/09/14 04:38:51;;;;;;;12.50;9.88;;;;;;;12.18;73.90;98734.53;5110319;28;20023;-52
2022/09/14 04:41:19;;;;;;;11.10;9.20;;;;;;;12.12;73.37;98716.41;5110734;28;20023;-56
2022/09/14 04:43:46;;;;;;;10.93;9.40;;;;;;;12.28;73.28;98737.09;5109952;28;20036;-54
2022/09/14 04:46:15;;;;;;;13.45;10.18;;;;;;;12.39;72.94;98735.94;5106813;28;20525;-53
2022/09/14 04:48:41;;;;;;;11.30;9.55;;;;;;;12.49;72.61;98738.50;5110460;28;20035;-57
2022/09/14 04:51:12;;;;;;;11.40;9.93;;;;;;;12.63;71.85;98739.72;5109904;28;20429;-53
2022/09/14 04:53:38;;;;;;;12.18;9.50;;;;;;;12.74;72.04;98744.75;5108348;28;20160;-53
2022/09/14 04:56:09;;;;;;;10.93;9.20;;;;;;;12.99;70.61;98741.28;5109458;28;20031;-53
2022/09/14 04:58:38;;;;;;;12.25;10.35;;;;;;;12.88;70.03;98731.69;5108936;28;20020;-54
2022/09/14 05:01:10;;;;;;;10.43;9.20;;;;;;;13.02;70.26;98747.19;5109933;28;20023;-60
2022/09/14 05:03:39;;;;;;;10.80;9.80;;;;;;;13.03;70.00;98756.06;5107399;28;20032;-56
2022/09/14 05:06:07;;;;;;;13.43;9.85;;;;;;;13.03;69.71;98748.84;5107417;28;20047;-58
2022/09/14 05:08:35;;;;;;;12.15;9.38;;;;;;;12.91;70.48;98755.53;5107227;28;20057;-61
2022/09/14 05:11:01;;;;;;;11.98;9.90;;;;;;;12.87;70.26;98744.28;5109709;28;20074;-52
2022/09/14 05:13:26;;;;;;;13.13;10.40;;;;;;;12.84;70.84;98743.78;5109721;28;20063;-51
2022/09/14 05:15:52;;;;;;;11.80;9.77;;;;;;;12.91;70.48;98747.47;5106639;28;20020;-56
2022/09/14 05:18:17;;;;;;;11.27;9.63;;;;;;;12.89;70.25;98746.81;5108874;28;20023;-54
2022/09/14 05:20:43;;;;;;;11.18;9.88;;;;;;;12.94;69.97;98749.84;5108160;28;20072;-52
2022/09/14 05:23:08;;;;;;;11.45;10.27;;;;;;;13.08;69.59;98745.66;5090345;28;20024;-51
2022/09/14 05:25:34;;;;;;;11.27;9.98;;;;;;;13.12;69.21;98757.75;5107961;28;20143;-55
2022/09/14 05:27:59;;;;;;;10.55;9.45;;;;;;;13.14;69.21;98745.00;5110126;28;20107;-50
2022/09/14 05:30:25;;;;;;;12.25;10.00;;;;;;;13.12;69.61;98749.69;5109868;28;20070;-50
2022/09/14 05:32:50;;;;;;;12.68;10.43;;;;;;;13.13;69.42;98751.34;5109880;28;20046;-52
2022/09/14 05:35:16;;;;;;;11.50;10.30;;;;;;;13.15;69.34;98746.69;5110069;28;20114;-55
2022/09/14 05:37:41;;;;;;;11.85;10.02;;;;;;;13.03;69.18;98727.34;5109701;28;20107;-51
2022/09/14 05:40:07;;;;;;;12.18;10.57;;;;;;;13.22;68.68;98752.19;5109471;28;20106;-51
2022/09/14 05:42:33;;;;;;;11.82;10.02;;;;;;;13.17;69.10;98751.88;5110434;28;20456;-52
2022/09/14 05:44:59;;;;;;;14.15;10.05;;;;;;;13.21;68.67;98742.47;5109941;28;20545;-51
2022/09/14 05:47:27;;;;;;;12.15;10.35;;;;;;;13.27;68.43;98741.81;5110239;28;20130;-53
2022/09/14 05:49:53;;;;;;;13.57;10.48;;;;;;;13.20;68.34;98711.22;5110101;28;20034;-53
2022/09/14 05:52:20;;;;;;;13.60;11.50;;;;;;;13.27;68.81;98744.50;5110814;28;20463;-58
2022/09/14 05:54:46;;;;;;;14.43;11.48;;;;;;;13.31;68.63;98743.16;5110322;28;20431;-53
2022/09/14 05:57:11;;;;;;;13.93;11.05;;;;;;;13.25;68.19;98735.75;5109601;28;20104;-50
2022/09/14 05:59:37;;;;;;;12.70;11.00;;;;;;;13.29;68.58;98745.16;5109348;28;20176;-54
2022/09/14 06:02:02;;;;;;;15.23;11.75;;;;;;;13.25;68.55;98765.31;5110361;28;20027;-55
2022/09/14 06:04:28;;;;;;;15.15;12.50;;;;;;;13.07;68.86;98727.84;5108714;28;20037;-54
2022/09/14 06:06:54;;;;;;;15.48;12.60;;;;;;;13.07;69.34;98752.88;5108684;28;20047;-59
2022/09/14 06:09:19;;;;;;;14.63;12.63;;;;;;;12.91;70.02;98742.09;5109526;28;20044;-55
2022/09/14 06:11:45;;;;;;;15.98;12.05;;;;;;;12.96;70.05;98747.81;5109960;28;20241;-56
2022/09/14 06:14:11;;;;;;;13.38;11.90;;;;;;;12.95;70.07;98745.31;5110103;28;20032;-54
2022/09/14 06:16:36;;;;;;;15.07;12.52;;;;;;;13.00;70.13;98738.41;5110590;28;20047;-58
2022/09/14 06:19:03;;;;;;;14.50;11.50;;;;;;;13.11;69.85;98745.31;5114120;28;20032;-55
2022/09/14 06:21:33;;;;;;;16.95;12.00;;;;;;;13.31;68.74;98748.53;5113883;28;20123;-53
2022/09/14 06:23:59;;;;;;;16.13;11.90;;;;;;;13.19;69.01;98736.41;5112956;28;20040;-49
2022/09/14 06:26:25;;;;;;;12.55;11.13;;;;;;;13.03;69.10;98722.00;5114101;28;20034;-52
2022/09/14 06:28:52;;;;;;;14.93;11.02;;;;;;;13.11;69.53;98741.81;5111590;28;20114;-57
2022/09/14 06:31:21;;;;;;;12.77;10.90;;;;;;;13.15;68.89;98735.94;5101055;28;20031;-58
2022/09/14 06:33:48;;;;;;;11.43;9.43;;;;;;;13.22;68.36;98741.44;5112332;28;20023;-58
2022/09/14 06:36:19;;;;;;;11.32;9.70;;;;;;;13.28;68.60;98737.25;5113910;28;20028;-54
2022/09/14 06:38:46;;;;;;;12.00;10.32;;;;;;;13.33;68.50;98746.50;5113865;28;20418;-57
2022/09/14 06:41:16;;;;;;;12.48;10.82;;;;;;;13.44;68.03;98739.97;5113168;27;20111;-56
2022/09/14 06:43:43;;;;;;;13.55;10.32;;;;;;;13.52;67.46;98731.06;5113765;28;20038;-53
2022/09/14 06:46:15;;;;;;;13.25;8.90;;;;;;;13.57;67.34;98746.69;5112346;28;20443;-55
2022/09/14 06:48:44;;;;;;;15.18;9.02;;;;;;;13.60;66.85;98717.59;5112880;28;20890;-53
2022/09/14 06:51:18;;;;;;;9.68;8.68;;;;;;;13.80;66.63;98732.53;5112791;28;20028;-54
2022/09/14 06:53:44;;;;;;;9.95;8.52;;;;;;;13.72;66.34;98719.91;5112864;28;20024;-56
2022/09/14 06:56:10;;;;;;;9.98;8.55;;;;;;;13.88;65.83;98730.66;5113130;28;20436;-57
2022/09/14 06:58:36;;;;;;;8.20;7.10;;;;;;;14.09;64.88;98720.31;5112998;28;20100;-56
2022/09/14 07:01:07;;;;;;;9.07;7.40;;;;;;;14.06;65.07;98708.88;5109348;28;20119;-55
2022/09/14 07:03:36;;;;;;;9.73;7.03;;;;;;;14.21;64.75;98717.06;5112869;28;20554;-55
2022/09/14 07:06:09;;;;;;;7.13;6.43;;;;;;;14.41;63.61;98713.97;5112708;28;20122;-52
2022/09/14 07:08:36;;;;;;;8.73;6.82;;;;;;;14.45;63.61;98717.97;5113017;28;20079;-55
2022/09/14 07:11:03;;;;;;;7.25;6.55;;;;;;;14.48;63.38;98714.94;5112565;28;20134;-55
2022/09/14 07:13:30;;;;;;;7.85;7.00;;;;;;;14.52;63.11;98714.59;5111850;28;20020;-54
2022/09/14 07:15:56;;;;;;;9.55;6.18;;;;;;;14.54;63.17;98715.25;5112232;27;20049;-55
2022/09/14 07:18:27;;;;;;;9.18;7.18;;;;;;;14.58;63.23;98714.69;5112231;28;20031;-57
2022/09/14 07:20:54;;;;;;;10.73;8.43;;;;;;;14.57;63.29;98718.41;5112363;28;20038;-55
2022/09/14 07:23:19;;;;;;;10.90;9.30;;;;;;;14.56;62.86;98707.84;5091883;28;20028;-55
2022/09/14 07:25:44;;;;;;;14.13;9.57;;;;;;;14.39;63.78;98721.38;5091895;28;20039;-54
2022/09/14 07:28:10;;;;;;;13.35;9.50;;;;;;;14.30;64.31;98700.91;5092114;28;20347;-60
2022/09/14 07:30:37;;;;;;;12.27;10.60;;;;;;;14.29;64.16;98720.75;5102790;28;20378;-55
2022/09/14 07:33:06;;;;;;;11.77;10.18;;;;;;;14.25;64.66;98719.44;5112358;28;20111;-60
2022/09/14 07:35:32;;;;;;;13.57;10.00;;;;;;;14.03;64.83;98673.44;5110806;28;20037;-56
2022/09/14 07:37:58;;;;;;;11.88;10.40;;;;;;;14.16;64.72;98692.53;5112135;28;20054;-51
2022/09/14 07:40:23;;;;;;;12.75;11.00;;;;;;;14.12;64.88;98707.38;5112334;28;20063;-56
2022/09/14 07:42:50;;;;;;;15.85;12.00;;;;;;;14.04;65.50;98702.84;5112336;28;20040;-63
2022/09/14 07:45:16;;;;;;;17.60;11.88;;;;;;;14.05;65.74;98699.13;5112040;28;20076;-56
2022/09/14 07:47:41;;;;;;;17.75;13.23;;;;;;;14.13;65.49;98706.34;5112368;28;20035;-56
2022/09/14 07:50:07;;;;;;;18.58;12.80;;;;;;;13.96;66.38;98716.34;5109398;28;20487;-53
2022/09/14 07:52:33;;;;;;;21.50;12.60;;;;;;;13.76;67.67;98715.91;5110271;28;20305;-55
2022/09/14 07:54:59;;;;;;;19.08;13.68;;;;;;;13.73;68.20;98713.53;5111997;28;20043;-51
2022/09/14 07:57:24;;;;;;;16.05;12.10;;;;;;;13.62;68.78;98687.84;5112387;28;20028;-53
2022/09/14 07:59:50;;;;;;;15.30;11.98;;;;;;;13.68;68.86;98708.69;5110910;28;20042;-53
2022/09/14 08:02:15;;;;;;;14.80;11.55;;;;;;;13.74;68.48;98707.13;5112358;28;20039;-53
2022/09/14 08:04:42;;;;;;;14.23;11.82;;;;;;;13.87;68.23;98699.38;5112311;28;20015;-60
2022/09/14 08:07:08;;;;;;;14.98;12.02;;;;;;;13.84;68.58;98706.94;5111206;28;20067;-57
2022/09/14 08:09:34;;;;;;;15.30;11.90;;;;;;;13.96;68.15;98696.66;5110919;27;20055;-55
2022/09/14 08:11:59;;;;;;;15.82;11.40;;;;;;;13.95;68.55;98693.13;5112348;28;20036;-56
2022/09/14 08:14:25;;;;;;;19.55;11.38;;;;;;;13.99;68.55;98712.47;5093681;28;20020;-50
2022/09/14 08:16:51;;;;;;;14.77;10.88;;;;;;;13.96;67.97;98683.19;5110314;28;20035;-52
2022/09/14 08:19:19;;;;;;;15.32;10.65;;;;;;;14.14;68.06;98697.25;5102150;28;20111;-53
2022/09/14 08:21:46;;;;;;;15.07;10.93;;;;;;;14.25;67.88;98689.81;5108756;28;20043;-52
2022/09/14 08:24:12;;;;;;;16.70;11.27;;;;;;;14.50;66.95;98696.75;5111256;28;20032;-54
2022/09/14 08:26:39;;;;;;;14.30;11.48;;;;;;;14.62;66.19;98694.50;5110371;28;20031;-53
2022/09/14 08:29:06;;;;;;;14.48;11.00;;;;;;;14.70;66.65;98685.50;5111402;28;20118;-54
2022/09/14 08:31:36;;;;;;;17.55;10.75;;;;;;;14.86;65.91;98656.81;5112039;28;20023;-53
2022/09/14 08:34:02;;;;;;;12.43;10.45;;;;;;;15.35;64.24;98680.63;5110867;28;20050;-54
2022/09/14 08:36:31;;;;;;;13.88;10.05;;;;;;;15.62;63.90;98680.22;5111255;28;20024;-51
2022/09/14 08:38:57;;;;;;;11.27;10.07;;;;;;;15.76;62.56;98686.63;5093532;28;20039;-53
2022/09/14 08:41:23;;;;;;;12.88;10.18;;;;;;;15.75;62.33;98688.50;5107188;28;20529;-55
2022/09/14 08:43:49;;;;;;;10.73;9.60;;;;;;;15.73;62.33;98689.72;5111419;28;20042;-52
2022/09/14 08:46:21;;;;;;;12.27;10.63;;;;;;;15.86;62.27;98681.78;5110923;28;20063;-58
2022/09/14 08:48:48;;;;;;;13.18;10.90;;;;;;;15.72;62.12;98675.38;5110794;28;20395;-50
2022/09/14 08:51:15;;;;;;;12.52;11.23;;;;;;;15.69;62.09;98693.81;5108793;28;20027;-55
2022/09/14 08:53:41;;;;;;;16.45;11.30;;;;;;;15.68;62.37;98674.06;5106606;28;20103;-54
2022/09/14 08:56:20;;;;;;;11.98;9.93;;;;;;;16.02;61.42;98680.78;5104841;28;20421;-52
2022/09/14 08:58:53;;;;;;;14.85;10.57;;;;;;;15.96;61.45;98683.41;5103473;28;20111;-54
2022/09/14 09:01:51;;;;;;;11.45;9.50;;;;;;;15.88;61.25;98687.00;5111271;28;20152;-58
2022/09/14 09:04:47;;;;;;;14.40;9.25;;;;;;;15.85;61.73;98682.00;5111000;28;20126;-54
2022/09/14 09:07:22;;;;;;;11.55;9.68;;;;;;;15.65;62.22;98675.28;5069314;28;20045;-55
2022/09/14 09:09:50;;;;;;;;;;;;;;;15.95;61.24;98676.34;5070521;28;20083;-51
2022/09/14 09:12:28;;;;;;;14.48;10.95;;;;;;;15.50;62.53;98683.34;5070107;28;20325;-52
2022/09/14 09:14:59;;;;;;;14.13;10.45;;;;;;;15.05;63.62;98650.91;5069588;28;20084;-51
2022/09/14 09:17:31;;;;;;;15.73;11.05;;;;;;;15.16;63.68;98678.44;5070496;28;20033;-55
2022/09/14 09:20:15;;;;;;;14.68;10.07;;;;;;;15.09;64.34;98682.91;5069644;28;20028;-55
2022/09/14 09:22:46;;;;;;;11.65;9.13;;;;;;;15.01;63.86;98687.34;5050141;28;20478;-54
2022/09/14 09:25:22;;;;;;;10.30;9.20;;;;;;;15.07;63.84;98675.84;5049906;28;20161;-51
2022/09/14 09:27:47;;;;;;;;;;;;;;;15.33;62.61;98674.59;5050041;28;20346;-56
2022/09/14 09:30:14;;;;;;;11.52;8.80;;;;;;;15.11;63.27;98678.16;5065423;28;19916;-58
2022/09/14 09:32:41;;;;;;;10.15;9.00;;;;;;;14.97;63.69;98672.56;5070127;28;20044;-56
2022/09/14 09:35:06;;;;;;;11.07;9.23;;;;;;;14.87;64.32;98661.16;5061208;28;20056;-55
2022/09/14 09:37:37;;;;;;;11.82;9.20;;;;;;;14.91;64.16;98675.94;5069393;28;20071;-50
2022/09/14 09:40:13;;;;;;;10.18;8.55;;;;;;;14.81;64.25;98638.47;5068863;28;20040;-53
2022/09/14 09:43:09;;;;;;;10.90;9.13;;;;;;;15.09;64.09;98672.13;5069308;28;20044;-54
2022/09/14 09:45:55;;;;;;;11.75;9.65;;;;;;;15.29;63.18;98664.34;5059422;28;20033;-55
2022/09/14 09:48:43;;;;;;;14.57;9.10;;;;;;;15.46;62.54;98673.13;5069205;28;20115;-59
2022/09/14 09:51:12;;;;;;;8.73;7.82;;;;;;;15.56;61.99;98676.38;5083822;28;20130;-55
2022/09/14 09:53:47;;;;;;;13.15;8.20;;;;;;;15.45;61.94;98644.50;5077090;28;20056;-54
2022/09/14 09:56:22;;;;;;;7.57;6.85;;;;;;;15.60;61.18;98680.38;5073123;28;20029;-53
2022/09/14 09:58:50;;;;;;;8.32;7.45;;;;;;;15.52;61.31;98661.59;5071959;28;20468;-57
2022/09/14 10:01:27;;;;;;;8.35;7.18;;;;;;;15.37;62.20;98672.38;5073629;28;20032;-59
2022/09/14 10:04:20;;;;;;;9.38;7.45;;;;;;;15.32;62.48;98682.88;5073579;28;20063;-56
2022/09/14 10:06:53;;;;;;;7.15;6.28;;;;;;;15.11;62.79;98670.94;5083411;28;20275;-59
2022/09/14 10:09:25;;;;;;;8.82;7.93;;;;;;;14.90;63.28;98664.34;5094191;28;20044;-52
2022/09/14 10:12:14;;;;;;;11.30;8.90;;;;;;;14.99;64.24;98667.81;5093457;28;20032;-55
2022/09/14 10:14:39;;;;;;;14.05;9.55;;;;;;;14.77;65.26;98669.50;5093708;28;20040;-60
2022/09/14 10:17:16;;;;;;;13.40;10.68;;;;;;;14.73;65.77;98674.41;5094441;28;20085;-55
2022/09/14 10:19:51;;;;;;;12.00;10.45;;;;;;;14.56;65.92;98653.97;5096341;28;20024;-54
2022/09/14 10:22:28;;;;;;;10.95;9.82;;;;;;;14.61;66.29;98675.81;5112270;28;20024;-57
2022/09/14 10:25:00;;;;;;;13.85;10.75;;;;;;;14.46;66.98;98667.66;5113722;28;20050;-57
2022/09/14 10:27:34;;;;;;;13.05;10.55;;;;;;;14.52;67.56;98690.34;5114346;28;20035;-55
2022/09/14 10:30:03;;;;;;;10.27;9.27;;;;;;;14.45;67.51;98677.56;5113708;28;20383;-55
2022/09/14 10:32:31;;;;;;;9.80;8.77;;;;;;;14.38;68.30;98687.38;5113318;28;20059;-57
2022/09/14 10:34:58;;;;;;;9.60;8.13;;;;;;;14.40;67.59;98673.75;5110266;28;20024;-54
2022/09/14 10:38:03;;;;;;;8.00;7.07;;;;;;;14.56;67.64;98675.50;5094130;28;20036;-56
2022/09/14 10:40:38;;;;;;;9.48;7.38;;;;;;;14.62;67.71;98681.03;5092230;28;20040;-55
2022/09/14 10:43:14;;;;;;;9.98;7.05;;;;;;;14.58;66.65;98654.63;5093040;28;20108;-56
2022/09/14 10:45:49;;;;;;;8.68;7.07;;;;;;;14.77;66.19;98675.72;5093833;28;20082;-57
2022/09/14 10:48:49;;;;;;;7.78;6.97;;;;;;;15.04;65.95;98675.34;5094190;28;20058;-58
2022/09/14 10:51:37;;;;;;;14.18;10.40;;;;;;;15.15;65.57;98677.63;5076848;28;20036;-55
2022/09/14 10:54:11;;;;;;;7.93;7.00;;;;;;;15.20;64.98;98669.00;5092961;28;20464;-55
2022/09/14 10:56:58;;;;;;;7.78;6.82;;;;;;;15.27;64.47;98674.47;5093303;28;20776;-52
2022/09/14 10:59:27;;;;;;;10.98;7.72;;;;;;;15.23;64.77;98684.81;5108959;28;20484;-57
2022/09/14 11:02:17;;;;;;;9.30;6.63;;;;;;;15.24;64.73;98678.41;5112533;28;20035;-56
2022/09/14 11:05:03;;;;;;;9.80;6.70;;;;;;;15.25;64.38;98671.97;5112263;28;20030;-52
2022/09/14 11:07:50;;;;;;;9.25;7.03;;;;;;;15.30;64.82;98680.34;5093223;28;20425;-51
2022/09/14 11:10:39;;;;;;;8.23;6.93;;;;;;;15.30;64.18;98674.97;5106298;28;20127;-58
2022/09/14 11:13:26;;;;;;;8.20;6.95;;;;;;;15.32;64.47;98678.31;5080571;28;20074;-57
2022/09/14 11:16:12;;;;;;;12.50;7.40;;;;;;;15.18;64.99;98673.72;5112299;28;20475;-53
2022/09/14 11:18:51;;;;;;;10.23;8.05;;;;;;;15.24;64.89;98681.09;5112951;28;20043;-55
2022/09/14 11:21:24;;;;;;;12.15;8.18;;;;;;;15.33;64.80;98669.19;5103367;28;20081;-53
2022/09/14 11:23:53;;;;;;;9.13;7.53;;;;;;;15.41;64.13;98664.72;5092709;28;20128;-57
2022/09/14 11:26:35;;;;;;;8.07;7.18;;;;;;;15.71;63.59;98670.19;5097276;28;20485;-55
2022/09/14 11:29:29;;;;;;;8.18;6.85;;;;;;;15.91;62.52;98668.63;5111636;28;20040;-56
2022/09/14 11:32:14;;;;;;;7.30;6.47;;;;;;;16.17;61.57;98669.13;5090720;28;20460;-59
2022/09/14 11:35:09;;;;;;;7.43;6.43;;;;;;;16.37;60.77;98672.06;5112533;28;20032;-56
2022/09/14 11:37:41;;;;;;;8.82;6.93;;;;;;;16.50;60.18;98668.69;5099400;28;20036;-57
2022/09/14 11:40:18;;;;;;;9.30;6.65;;;;;;;16.27;60.37;98634.56;5097487;28;20031;-58
2022/09/14 11:42:59;;;;;;;10.27;6.82;;;;;;;16.34;60.66;98658.94;5091847;28;20096;-56
2022/09/14 11:45:44;;;;;;;10.75;7.22;;;;;;;16.19;60.86;98657.13;5100260;28;20485;-53